Terminal Aerodrome Forecast
Issued by NWS

Home | Current Version | Previous Version | Text Only | Print | Product List | Glossary On
Versions: 1 2 3 4 5 6 7 8 9 10 11 12 13 14 15 16 17 18 19 20 21 22 23 24 25 26 27 28 29 30 31
000
FTUS46 KOTX 261736
TAFCOE
TAF
KCOE 261736Z 2618/2718 25003KT 3SM BR BKN004 OVC010
      TEMPO 2618/2620 2SM BR SCT002 OVC004
     FM262000 21008KT P6SM OVC015
     FM270700 20006KT P6SM OVC025
     FM270900 18006KT P6SM SCT025 BKN050
     FM271200 20011KT P6SM -RA BKN025 OVC050
      AMD LTD TO CLD AND VIS=

USA.gov is the U.S. government's official web portal to all federal, state and local government web resources and services.